Time;durP1;ratioP1;P1;durP2;ratioP2;P2;SDS_P1;SDS_P2;PMS_P1;PMS_P2;Temp;Humidity;BMP_temperature;BMP_pressure;BME280_temperature;BME280_humidity;BME280_pressure;Samples;Min_cycle;Max_cycle;Signal;HPM_P1;HPM_P2
2023/05/02 00:00:36;;;;;;;5.03;4.53;;;10.20;99.90;;;;;;5053405;28;20036;-77
2023/05/02 00:03:04;;;;;;;8.68;4.90;;;10.20;99.90;;;;;;5053656;28;20386;-77
2023/05/02 00:05:30;;;;;;;6.63;4.45;;;10.10;99.90;;;;;;5053211;28;20025;-77
2023/05/02 00:07:56;;;;;;;8.93;4.53;;;10.00;99.90;;;;;;5054192;28;20048;-77
2023/05/02 00:10:22;;;;;;;6.97;4.38;;;10.00;99.90;;;;;;5053309;28;20032;-76
2023/05/02 00:12:47;;;;;;;7.05;4.45;;;10.00;99.90;;;;;;5053212;28;20059;-77
2023/05/02 00:15:13;;;;;;;5.82;3.92;;;9.90;99.90;;;;;;5035884;28;20078;-77
2023/05/02 00:17:41;;;;;;;6.53;4.20;;;10.00;99.90;;;;;;5053277;28;20074;-77
2023/05/02 00:20:08;;;;;;;7.75;4.60;;;10.00;99.90;;;;;;5053925;28;20061;-77
2023/05/02 00:22:34;;;;;;;9.23;4.80;;;9.90;99.90;;;;;;5053024;28;20108;-77
2023/05/02 00:25:00;;;;;;;8.45;4.80;;;9.90;99.90;;;;;;5053364;28;20113;-76
2023/05/02 00:27:26;;;;;;;8.57;4.65;;;9.80;99.90;;;;;;5053069;28;20036;-77
2023/05/02 00:29:53;;;;;;;8.02;4.95;;;9.80;99.90;;;;;;5054236;28;20049;-76
2023/05/02 00:32:18;;;;;;;9.90;4.93;;;9.90;99.90;;;;;;5053973;28;20029;-76
2023/05/02 00:34:44;;;;;;;7.63;4.85;;;9.90;99.90;;;;;;5053203;28;20175;-76
2023/05/02 00:37:10;;;;;;;6.20;5.20;;;9.80;99.90;;;;;;5054654;28;20032;-78
2023/05/02 00:39:36;;;;;;;10.15;6.35;;;9.90;99.90;;;;;;5060840;28;20512;-78
2023/05/02 00:42:02;;;;;;;10.75;5.50;;;10.00;99.90;;;;;;5064590;28;20463;-75
2023/05/02 00:44:28;;;;;;;15.48;10.15;;;10.10;99.90;;;;;;5062614;28;20115;-78
2023/05/02 00:46:55;;;;;;;16.23;10.10;;;10.20;99.90;;;;;;5063473;28;20049;-77
2023/05/02 00:49:21;;;;;;;14.02;8.05;;;10.40;99.90;;;;;;5062454;28;20051;-76
2023/05/02 00:51:47;;;;;;;13.88;8.13;;;10.40;99.90;;;;;;5059726;28;20029;-77
2023/05/02 00:54:13;;;;;;;12.48;7.95;;;10.50;99.90;;;;;;5060840;28;20040;-76
2023/05/02 00:56:39;;;;;;;10.55;6.80;;;10.60;99.90;;;;;;5060953;28;20029;-76
2023/05/02 00:59:07;;;;;;;7.97;6.03;;;10.80;99.90;;;;;;5062711;28;20055;-76
2023/05/02 01:01:48;;;;;;;8.45;5.47;;;10.90;99.90;;;;;;5062185;28;20025;-77
2023/05/02 01:04:39;;;;;;;5.03;3.70;;;11.00;99.90;;;;;;5059668;28;20033;-74
2023/05/02 01:07:28;;;;;;;6.45;3.75;;;11.00;99.90;;;;;;5061128;28;20025;-74
2023/05/02 01:10:10;;;;;;;9.63;3.13;;;11.20;99.90;;;;;;5039314;28;20033;-74
2023/05/02 01:12:53;;;;;;;4.95;3.05;;;11.20;99.90;;;;;;5057016;28;20048;-75
2023/05/02 01:15:22;;;;;;;3.97;2.67;;;11.20;99.90;;;;;;5039020;28;20033;-75
2023/05/02 01:17:49;;;;;;;7.72;2.50;;;11.20;99.90;;;;;;5057437;28;20025;-75
2023/05/02 01:20:20;;;;;;;5.45;2.47;;;11.20;99.90;;;;;;5055873;28;20025;-74
2023/05/02 01:22:47;;;;;;;5.45;2.60;;;11.30;99.90;;;;;;5054262;28;20021;-74
2023/05/02 01:25:22;;;;;;;6.45;2.72;;;11.40;99.90;;;;;;5036639;28;20092;-75
2023/05/02 01:28:03;;;;;;;7.10;2.63;;;11.40;99.90;;;;;;5053766;28;20025;-75
2023/05/02 01:30:32;;;;;;;4.93;2.72;;;11.50;99.90;;;;;;5054000;28;20039;-75
2023/05/02 01:33:00;;;;;;;5.68;2.50;;;11.40;99.90;;;;;;5054037;28;20033;-75
2023/05/02 01:35:27;;;;;;;7.45;2.83;;;11.40;99.90;;;;;;5053395;28;20025;-75
2023/05/02 01:37:54;;;;;;;6.68;2.63;;;11.30;99.90;;;;;;5053235;28;20049;-75
2023/05/02 01:40:22;;;;;;;8.23;2.72;;;11.40;99.90;;;;;;5053607;28;20029;-75
2023/05/02 01:42:49;;;;;;;9.40;2.78;;;11.40;99.90;;;;;;5053421;28;20075;-75
2023/05/02 01:45:16;;;;;;;11.75;2.95;;;11.50;99.90;;;;;;5053453;28;20474;-75
2023/05/02 01:47:43;;;;;;;8.07;2.70;;;11.40;99.90;;;;;;5052938;28;20127;-75
2023/05/02 01:50:12;;;;;;;10.57;3.08;;;11.40;99.90;;;;;;5053477;28;20029;-74
2023/05/02 01:52:39;;;;;;;8.88;2.88;;;11.40;99.90;;;;;;5053110;28;20036;-75
2023/05/02 01:55:11;;;;;;;14.27;3.60;;;11.30;99.90;;;;;;5053109;28;20083;-75
2023/05/02 01:57:40;;;;;;;8.55;2.78;;;11.30;99.90;;;;;;5053080;28;20378;-75
2023/05/02 02:00:07;;;;;;;9.57;2.80;;;11.30;99.90;;;;;;5053231;28;20044;-74
2023/05/02 02:02:34;;;;;;;7.22;3.50;;;11.30;99.90;;;;;;5035772;28;20074;-76
2023/05/02 02:05:03;;;;;;;11.13;3.33;;;11.30;99.90;;;;;;5053468;28;20031;-75
2023/05/02 02:07:29;;;;;;;11.57;2.92;;;11.30;99.90;;;;;;5052967;28;20021;-75
2023/05/02 02:09:55;;;;;;;8.07;2.72;;;11.30;99.90;;;;;;5052472;28;20403;-75
2023/05/02 02:12:21;;;;;;;12.02;3.15;;;11.30;99.90;;;;;;5052955;28;20026;-75
2023/05/02 02:14:55;;;;;;;6.75;2.85;;;11.30;99.90;;;;;;5034192;28;20033;-75
2023/05/02 02:17:28;;;;;;;11.23;3.05;;;11.30;99.90;;;;;;5053144;28;20048;-75
2023/05/02 02:19:56;;;;;;;11.98;3.30;;;11.30;99.90;;;;;;5052643;28;20063;-75
2023/05/02 02:22:26;;;;;;;8.38;3.15;;;11.40;99.90;;;;;;5052675;28;20028;-75
2023/05/02 02:24:53;;;;;;;10.75;3.03;;;11.40;99.90;;;;;;5052696;28;20037;-75
2023/05/02 02:27:19;;;;;;;8.02;2.83;;;11.40;99.90;;;;;;5053204;28;20032;-75
2023/05/02 02:29:45;;;;;;;9.98;3.05;;;11.40;99.90;;;;;;5050786;28;20501;-75
2023/05/02 02:32:12;;;;;;;7.07;2.75;;;11.40;99.90;;;;;;5052592;28;20498;-75
2023/05/02 02:34:38;;;;;;;8.65;3.03;;;11.40;99.90;;;;;;5055286;28;20033;-76
2023/05/02 02:37:14;;;;;;;7.57;2.78;;;11.30;99.90;;;;;;5056673;28;20048;-75
2023/05/02 02:40:16;;;;;;;6.65;2.58;;;11.30;99.90;;;;;;5055663;28;20055;-75
2023/05/02 02:43:02;;;;;;;9.77;2.72;;;11.40;99.90;;;;;;5056145;28;20025;-76
2023/05/02 02:46:00;;;;;;;12.75;2.92;;;11.40;99.90;;;;;;5056540;28;20533;-75
2023/05/02 02:48:51;;;;;;;9.13;2.50;;;11.20;99.90;;;;;;5056380;28;20029;-75
2023/05/02 02:51:30;;;;;;;11.98;2.60;;;11.20;99.90;;;;;;5056224;28;20466;-76
2023/05/02 02:54:05;;;;;;;8.98;2.80;;;11.20;99.90;;;;;;5055445;28;20727;-75
2023/05/02 02:56:49;;;;;;;8.95;2.85;;;11.20;99.90;;;;;;5056718;28;20029;-75
2023/05/02 02:59:34;;;;;;;9.23;3.25;;;11.20;99.90;;;;;;5038811;28;20033;-76
2023/05/02 03:02:13;;;;;;;11.65;3.83;;;11.30;99.90;;;;;;5055736;28;20052;-75
2023/05/02 03:04:44;;;;;;;10.00;4.07;;;11.30;99.90;;;;;;5055875;28;20032;-76
2023/05/02 03:07:10;;;;;;;10.55;3.65;;;11.30;99.90;;;;;;5056224;28;20025;-75
2023/05/02 03:09:43;;;;;;;10.02;3.78;;;11.40;99.90;;;;;;5054983;28;20037;-76
2023/05/02 03:12:09;;;;;;;8.43;4.13;;;11.40;99.90;;;;;;5055135;28;20025;-75
2023/05/02 03:14:36;;;;;;;9.60;3.05;;;11.30;99.90;;;;;;5055388;28;20040;-75
2023/05/02 03:17:02;;;;;;;9.32;3.55;;;11.30;99.90;;;;;;5054896;28;20036;-75
2023/05/02 03:19:28;;;;;;;11.60;3.20;;;11.30;99.90;;;;;;5037479;28;20033;-75
2023/05/02 03:21:54;;;;;;;10.38;3.08;;;11.20;99.90;;;;;;5054959;28;20025;-75
2023/05/02 03:24:20;;;;;;;9.60;3.95;;;11.20;99.90;;;;;;5055708;28;20040;-75
2023/05/02 03:26:49;;;;;;;7.25;3.47;;;11.10;99.90;;;;;;5036821;28;20036;-75
2023/05/02 03:29:15;;;;;;;14.55;3.45;;;11.10;99.90;;;;;;5055274;28;20499;-75
2023/05/02 03:31:41;;;;;;;9.82;3.80;;;11.20;99.90;;;;;;5054475;28;20104;-76
2023/05/02 03:34:07;;;;;;;12.50;3.25;;;11.20;99.90;;;;;;5054731;28;20037;-75
2023/05/02 03:36:33;;;;;;;9.23;3.35;;;11.10;99.90;;;;;;5055047;28;20477;-75
2023/05/02 03:38:59;;;;;;;8.15;2.65;;;11.20;99.90;;;;;;5054344;28;20500;-75
2023/05/02 03:41:24;;;;;;;9.07;2.58;;;11.20;99.90;;;;;;5054314;28;20040;-76
2023/05/02 03:43:50;;;;;;;5.70;2.75;;;11.10;99.90;;;;;;5036517;28;20029;-76
2023/05/02 03:46:16;;;;;;;9.40;2.60;;;11.10;99.90;;;;;;5054644;28;20026;-75
2023/05/02 03:48:44;;;;;;;11.93;3.08;;;11.10;99.90;;;;;;5054306;28;20029;-75
2023/05/02 03:51:10;;;;;;;11.82;2.80;;;11.10;99.90;;;;;;5054792;28;20048;-75
2023/05/02 03:53:36;;;;;;;10.02;3.28;;;11.10;99.90;;;;;;5055131;28;20469;-74
2023/05/02 03:56:02;;;;;;;14.93;3.65;;;11.00;99.90;;;;;;5054159;28;20037;-74
2023/05/02 03:58:27;;;;;;;11.15;2.72;;;11.00;99.90;;;;;;5036841;28;20474;-75
2023/05/02 04:00:53;;;;;;;9.95;3.28;;;10.90;99.90;;;;;;5053799;28;20496;-75
2023/05/02 04:03:20;;;;;;;11.05;2.80;;;11.00;99.90;;;;;;5054308;28;20021;-75
2023/05/02 04:05:46;;;;;;;8.88;2.97;;;11.00;99.90;;;;;;5053893;28;20119;-75
2023/05/02 04:08:12;;;;;;;8.48;2.80;;;11.00;99.90;;;;;;5036737;28;20068;-75
2023/05/02 04:10:38;;;;;;;6.03;2.60;;;11.00;99.90;;;;;;5053934;28;20029;-76
2023/05/02 04:13:04;;;;;;;10.52;2.88;;;11.10;99.90;;;;;;5035555;28;20033;-75
2023/05/02 04:15:32;;;;;;;9.38;2.83;;;11.10;99.90;;;;;;5053778;28;20028;-75
2023/05/02 04:17:58;;;;;;;7.03;2.80;;;11.10;99.90;;;;;;5052975;28;20467;-75
2023/05/02 04:20:24;;;;;;;11.93;3.65;;;11.10;99.90;;;;;;5053820;28;20025;-75
2023/05/02 04:22:50;;;;;;;6.60;2.67;;;11.10;99.90;;;;;;5053335;28;20029;-75
2023/05/02 04:25:16;;;;;;;9.55;3.15;;;11.10;99.90;;;;;;5054239;28;20435;-76
2023/05/02 04:27:42;;;;;;;9.15;3.40;;;11.10;99.90;;;;;;5053485;28;20025;-77
2023/05/02 04:30:09;;;;;;;11.25;3.22;;;11.10;99.90;;;;;;5054060;28;20037;-76
2023/05/02 04:32:35;;;;;;;9.05;2.97;;;11.10;99.90;;;;;;5053992;28;20059;-75
2023/05/02 04:35:01;;;;;;;11.73;3.30;;;11.10;99.90;;;;;;5052907;28;20045;-76
2023/05/02 04:37:27;;;;;;;9.55;2.88;;;11.10;99.90;;;;;;5053689;28;20032;-76
2023/05/02 04:39:53;;;;;;;4.57;2.53;;;11.10;99.90;;;;;;5053149;28;20112;-75
2023/05/02 04:42:18;;;;;;;9.60;2.90;;;11.00;99.90;;;;;;5053622;28;20033;-76
2023/05/02 04:44:44;;;;;;;9.00;2.80;;;11.10;99.90;;;;;;5035256;28;20070;-76
2023/05/02 04:47:10;;;;;;;9.88;2.40;;;11.10;99.90;;;;;;5053571;28;20032;-74
2023/05/02 04:49:36;;;;;;;6.90;2.53;;;11.10;99.90;;;;;;5035719;28;20033;-75
2023/05/02 04:52:02;;;;;;;7.90;2.85;;;11.10;99.90;;;;;;5053049;28;20185;-76
2023/05/02 04:54:28;;;;;;;14.65;3.10;;;11.10;99.90;;;;;;5053167;28;20057;-75
2023/05/02 04:56:53;;;;;;;10.77;2.88;;;11.20;99.90;;;;;;5052099;28;20025;-75
2023/05/02 04:59:19;;;;;;;10.93;2.70;;;11.10;99.90;;;;;;5053335;28;20021;-75
2023/05/02 05:01:45;;;;;;;11.68;3.25;;;11.10;99.90;;;;;;5052584;28;20029;-77
2023/05/02 05:04:10;;;;;;;12.50;3.20;;;11.10;99.90;;;;;;5053374;28;20086;-76
2023/05/02 05:06:36;;;;;;;13.40;3.22;;;11.10;99.90;;;;;;5053256;28;20394;-75
2023/05/02 05:09:02;;;;;;;8.98;3.15;;;11.10;99.90;;;;;;5052169;28;20467;-76
2023/05/02 05:11:28;;;;;;;10.70;4.38;;;11.10;99.90;;;;;;5052575;28;20025;-75
2023/05/02 05:13:54;;;;;;;9.57;3.67;;;11.10;99.90;;;;;;5051679;28;20029;-76
2023/05/02 05:16:19;;;;;;;7.53;3.50;;;11.10;99.90;;;;;;5052828;28;20111;-76
2023/05/02 05:18:46;;;;;;;13.93;4.13;;;11.00;99.90;;;;;;5052477;28;20037;-76
2023/05/02 05:21:11;;;;;;;10.43;3.42;;;11.00;99.90;;;;;;5052409;28;20033;-75
2023/05/02 05:23:37;;;;;;;7.55;3.50;;;11.00;99.90;;;;;;5034674;28;20390;-75
2023/05/02 05:26:10;;;;;;;10.82;3.10;;;11.10;99.90;;;;;;5051977;28;20025;-76
2023/05/02 05:28:36;;;;;;;12.93;3.78;;;11.10;99.90;;;;;;5052520;28;20049;-75
2023/05/02 05:31:06;;;;;;;8.52;3.00;;;11.10;99.90;;;;;;5052130;28;20466;-75
2023/05/02 05:33:33;;;;;;;9.88;3.65;;;11.20;99.90;;;;;;5052755;28;20463;-76
2023/05/02 05:36:09;;;;;;;8.70;3.08;;;11.20;99.90;;;;;;5052463;28;20021;-75
2023/05/02 05:38:36;;;;;;;12.68;3.25;;;11.20;99.90;;;;;;5053337;28;20044;-75
2023/05/02 05:41:02;;;;;;;10.88;4.05;;;11.30;99.90;;;;;;5052293;28;20025;-76
2023/05/02 05:43:28;;;;;;;7.63;2.78;;;11.30;99.90;;;;;;5052248;28;20466;-76
2023/05/02 05:45:55;;;;;;;7.97;2.90;;;11.20;99.90;;;;;;5051793;28;20025;-76
2023/05/02 05:48:22;;;;;;;10.15;3.90;;;11.30;99.90;;;;;;5052084;28;20029;-76
2023/05/02 05:50:49;;;;;;;14.00;4.32;;;11.30;99.90;;;;;;5051889;28;20079;-78
2023/05/02 05:53:15;;;;;;;10.10;3.80;;;11.30;99.90;;;;;;5052356;28;20060;-76
2023/05/02 05:55:41;;;;;;;9.70;4.32;;;11.40;99.90;;;;;;5034387;28;20470;-76
2023/05/02 05:58:07;;;;;;;12.23;3.75;;;11.40;99.90;;;;;;5034540;28;20732;-76
2023/05/02 06:00:37;;;;;;;17.48;4.57;;;11.40;99.90;;;;;;5051799;28;20032;-76
2023/05/02 06:03:03;;;;;;;13.05;4.50;;;11.40;99.90;;;;;;5051199;28;20028;-77
2023/05/02 06:05:29;;;;;;;12.43;5.07;;;11.40;99.90;;;;;;5051882;28;20017;-76
2023/05/02 06:07:56;;;;;;;10.73;3.95;;;11.40;99.90;;;;;;5051842;28;20037;-76
2023/05/02 06:10:22;;;;;;;12.95;4.50;;;11.40;99.90;;;;;;5055913;28;20100;-76
2023/05/02 06:12:47;;;;;;;14.32;4.53;;;11.40;99.90;;;;;;5037844;28;20048;-76
2023/05/02 06:15:13;;;;;;;11.32;4.15;;;11.50;99.90;;;;;;5055404;28;20040;-75
2023/05/02 06:17:39;;;;;;;18.42;5.22;;;11.50;99.90;;;;;;5056248;28;20090;-76
2023/05/02 06:20:06;;;;;;;7.72;3.50;;;11.50;99.90;;;;;;5055011;28;20039;-76
2023/05/02 06:22:31;;;;;;;9.90;4.13;;;11.50;99.90;;;;;;5037776;28;20032;-76
2023/05/02 06:24:57;;;;;;;12.10;4.05;;;11.50;99.90;;;;;;5055218;28;20024;-76
2023/05/02 06:27:23;;;;;;;9.75;4.55;;;11.50;99.90;;;;;;5055939;28;20025;-76
2023/05/02 06:29:52;;;;;;;10.30;5.65;;;11.60;99.90;;;;;;5055676;28;20099;-77
2023/05/02 06:32:18;;;;;;;8.70;4.53;;;11.70;99.90;;;;;;5055910;28;20025;-76
2023/05/02 06:34:45;;;;;;;9.95;5.13;;;11.80;99.90;;;;;;5055762;28;20040;-75
2023/05/02 06:37:10;;;;;;;12.95;5.68;;;12.00;99.90;;;;;;5054996;28;20048;-76
2023/05/02 06:39:36;;;;;;;7.90;5.25;;;12.10;99.90;;;;;;5055959;28;20135;-75
2023/05/02 06:42:03;;;;;;;10.95;5.22;;;12.20;99.90;;;;;;5055584;28;20458;-77
2023/05/02 06:44:29;;;;;;;9.90;5.47;;;12.30;99.90;;;;;;5056076;28;20033;-76
2023/05/02 06:46:55;;;;;;;6.60;4.63;;;12.50;99.90;;;;;;5055847;28;20108;-77
2023/05/02 06:49:24;;;;;;;10.57;5.05;;;12.80;99.90;;;;;;5055564;28;20438;-76
2023/05/02 06:51:50;;;;;;;13.32;5.60;;;13.00;99.90;;;;;;5055621;28;20482;-77
2023/05/02 06:54:16;;;;;;;9.02;5.30;;;13.00;99.90;;;;;;5054965;28;20072;-76
2023/05/02 06:56:42;;;;;;;9.25;4.65;;;13.00;99.90;;;;;;5054830;28;20021;-76
2023/05/02 06:59:08;;;;;;;17.45;5.30;;;13.20;99.90;;;;;;5054361;28;20033;-77
2023/05/02 07:01:33;;;;;;;10.70;5.18;;;13.40;99.90;;;;;;5055349;28;20025;-76
2023/05/02 07:04:00;;;;;;;9.60;4.72;;;13.60;99.90;;;;;;5054839;28;20029;-76
2023/05/02 07:06:26;;;;;;;11.05;4.88;;;13.70;99.90;;;;;;5055092;28;20025;-76
2023/05/02 07:08:52;;;;;;;11.30;4.95;;;13.70;99.90;;;;;;5055331;28;20028;-77
2023/05/02 07:11:18;;;;;;;10.93;5.60;;;13.80;99.90;;;;;;5054623;28;20470;-76
2023/05/02 07:13:44;;;;;;;9.73;4.65;;;13.80;99.90;;;;;;5037250;28;20036;-77
2023/05/02 07:16:10;;;;;;;12.10;4.93;;;13.90;99.90;;;;;;5054565;28;20025;-76
2023/05/02 07:18:36;;;;;;;13.85;5.97;;;13.90;99.90;;;;;;5054679;28;20036;-76
2023/05/02 07:21:02;;;;;;;14.70;6.45;;;13.80;99.90;;;;;;5036384;28;20075;-77
2023/05/02 07:23:28;;;;;;;16.65;5.97;;;13.70;99.90;;;;;;5055028;28;20072;-76
2023/05/02 07:25:54;;;;;;;11.68;6.30;;;13.50;99.90;;;;;;5054613;28;20435;-77
2023/05/02 07:28:20;;;;;;;11.48;6.35;;;13.50;99.90;;;;;;5054556;28;20100;-76
2023/05/02 07:30:45;;;;;;;12.38;7.00;;;13.50;99.90;;;;;;5054847;28;20425;-77
2023/05/02 07:33:11;;;;;;;10.23;6.22;;;13.40;99.90;;;;;;5053950;28;20398;-77
2023/05/02 07:35:37;;;;;;;12.48;7.28;;;13.40;99.90;;;;;;5054706;28;20024;-75
2023/05/02 07:38:02;;;;;;;11.32;6.88;;;13.50;99.90;;;;;;5053905;28;20028;-75
2023/05/02 07:40:28;;;;;;;14.27;7.18;;;13.50;99.90;;;;;;5054908;28;20025;-75
2023/05/02 07:42:54;;;;;;;10.77;6.40;;;13.50;99.90;;;;;;5054462;28;20031;-76
2023/05/02 07:45:20;;;;;;;11.05;6.68;;;13.50;99.90;;;;;;5053841;28;20175;-76
2023/05/02 07:47:46;;;;;;;13.02;7.15;;;13.20;99.90;;;;;;5056050;28;20029;-74
2023/05/02 07:50:11;;;;;;;10.75;6.53;;;13.30;99.90;;;;;;5036228;28;20463;-75
2023/05/02 07:52:37;;;;;;;11.63;7.65;;;13.40;99.90;;;;;;5035908;28;20053;-75
2023/05/02 07:55:04;;;;;;;14.25;6.47;;;13.40;99.90;;;;;;5053372;28;20044;-76
2023/05/02 07:57:30;;;;;;;13.25;6.55;;;13.50;99.90;;;;;;5053859;28;20032;-75
2023/05/02 07:59:56;;;;;;;15.10;7.88;;;13.30;99.90;;;;;;5053358;28;20159;-76
2023/05/02 08:02:22;;;;;;;17.58;7.82;;;13.40;99.90;;;;;;5053363;28;20103;-76
2023/05/02 08:04:48;;;;;;;12.57;7.40;;;13.50;99.90;;;;;;5035800;28;20033;-75
2023/05/02 08:07:14;;;;;;;13.05;7.93;;;13.60;99.90;;;;;;5053209;28;20060;-75
2023/05/02 08:09:40;;;;;;;13.43;6.72;;;13.60;99.90;;;;;;5053711;28;20090;-75
2023/05/02 08:12:06;;;;;;;12.73;7.50;;;13.70;99.90;;;;;;5052889;28;20049;-76
2023/05/02 08:14:32;;;;;;;9.68;7.30;;;13.60;99.90;;;;;;5053433;28;20036;-75
2023/05/02 08:16:59;;;;;;;11.30;6.68;;;13.50;99.90;;;;;;5053162;28;20036;-76
2023/05/02 08:19:25;;;;;;;14.88;7.32;;;13.40;99.90;;;;;;5053616;28;20463;-76
2023/05/02 08:21:53;;;;;;;9.13;6.38;;;13.30;99.90;;;;;;5053634;28;20036;-76
2023/05/02 08:24:19;;;;;;;11.65;6.20;;;13.40;99.90;;;;;;5052597;28;20765;-76
2023/05/02 08:26:44;;;;;;;12.15;5.95;;;13.60;99.90;;;;;;5053511;28;20129;-76
2023/05/02 08:29:11;;;;;;;15.18;7.50;;;13.70;99.90;;;;;;5052606;28;20127;-76
2023/05/02 08:31:39;;;;;;;15.77;7.25;;;13.90;99.90;;;;;;5052563;28;20025;-76
2023/05/02 08:34:04;;;;;;;12.13;6.63;;;13.90;99.90;;;;;;5052323;28;20029;-76
2023/05/02 08:36:31;;;;;;;12.13;6.63;;;14.00;99.90;;;;;;5053111;28;20111;-76
2023/05/02 08:38:56;;;;;;;9.38;6.10;;;14.20;99.90;;;;;;5053032;28;20036;-76
2023/05/02 08:41:22;;;;;;;11.40;6.53;;;14.30;99.90;;;;;;5052257;28;20032;-77
2023/05/02 08:43:48;;;;;;;11.80;6.07;;;14.30;99.90;;;;;;5052781;28;20029;-76
2023/05/02 08:46:16;;;;;;;11.90;6.45;;;14.50;99.90;;;;;;5051939;28;20370;-77
2023/05/02 08:48:44;;;;;;;12.50;5.80;;;14.20;99.90;;;;;;5052934;28;20127;-76
2023/05/02 08:51:12;;;;;;;10.93;6.10;;;14.20;99.90;;;;;;5053117;28;20048;-77
2023/05/02 08:53:39;;;;;;;9.13;5.63;;;14.30;99.90;;;;;;5053299;28;20475;-76
2023/05/02 08:56:09;;;;;;;10.55;6.38;;;14.20;99.90;;;;;;5051122;28;20032;-76
2023/05/02 08:58:39;;;;;;;11.23;5.65;;;14.30;99.90;;;;;;5053430;28;20370;-77
2023/05/02 09:01:29;;;;;;;13.75;6.32;;;14.10;99.90;;;;;;5051469;28;20049;-77
2023/05/02 09:03:58;;;;;;;10.85;7.07;;;14.30;99.90;;;;;;5053380;28;20513;-77
2023/05/02 09:06:26;;;;;;;10.70;6.35;;;14.50;99.90;;;;;;5052675;28;20017;-76
2023/05/02 09:08:51;;;;;;;12.00;7.60;;;14.80;99.90;;;;;;5052864;28;20035;-76
2023/05/02 09:11:18;;;;;;;7.10;6.32;;;15.00;99.90;;;;;;5052249;28;20421;-77
2023/05/02 09:13:51;;;;;;;11.82;6.68;;;15.30;99.90;;;;;;5052458;28;20037;-76
2023/05/02 09:16:22;;;;;;;9.55;6.43;;;15.50;99.90;;;;;;5052059;28;20025;-77
2023/05/02 09:18:49;;;;;;;9.68;7.40;;;15.50;99.90;;;;;;5052513;28;20025;-76
2023/05/02 09:21:20;;;;;;;11.68;6.78;;;15.60;99.90;;;;;;5051671;28;20036;-77
2023/05/02 09:23:53;;;;;;;7.95;6.07;;;15.50;99.90;;;;;;5052269;28;20375;-76
2023/05/02 09:26:33;;;;;;;11.27;6.20;;;15.70;99.90;;;;;;5052007;28;20029;-77
2023/05/02 09:29:04;;;;;;;10.43;6.53;;;15.80;99.90;;;;;;5052405;28;20040;-77
2023/05/02 09:31:40;;;;;;;12.23;6.95;;;15.60;99.90;;;;;;5052477;28;20219;-77
2023/05/02 09:34:11;;;;;;;12.93;6.95;;;15.40;99.90;;;;;;5051639;28;20421;-77
2023/05/02 09:36:52;;;;;;;10.95;7.82;;;15.50;99.90;;;;;;5052459;28;20056;-76
2023/05/02 09:39:24;;;;;;;11.02;6.50;;;15.50;99.90;;;;;;5051683;28;20028;-77
2023/05/02 09:41:50;;;;;;;7.88;5.97;;;15.40;99.90;;;;;;5052983;28;20064;-76
2023/05/02 09:44:18;;;;;;;9.70;6.45;;;15.40;99.90;;;;;;5055843;28;20068;-77
2023/05/02 09:46:48;;;;;;;9.68;6.13;;;15.20;99.90;;;;;;5057100;28;20025;-77
2023/05/02 09:49:17;;;;;;;14.32;6.03;;;14.90;99.90;;;;;;5056116;28;20028;-77
2023/05/02 09:51:45;;;;;;;11.73;6.07;;;15.00;99.90;;;;;;5038758;28;20417;-76
2023/05/02 09:54:12;;;;;;;10.75;6.03;;;15.10;99.90;;;;;;5055852;28;20036;-76
2023/05/02 09:56:55;;;;;;;11.57;6.22;;;15.30;99.90;;;;;;5056517;28;20104;-77
2023/05/02 09:59:21;;;;;;;6.72;5.35;;;15.50;99.90;;;;;;5056470;28;20025;-77
2023/05/02 10:01:57;;;;;;;11.52;5.68;;;15.70;99.90;;;;;;5056509;28;20025;-77
2023/05/02 10:04:24;;;;;;;6.97;5.75;;;15.80;99.90;;;;;;5056175;28;20339;-77
2023/05/02 10:06:51;;;;;;;8.10;5.07;;;15.80;99.90;;;;;;5056532;28;20029;-77
2023/05/02 10:09:19;;;;;;;7.70;5.28;;;16.00;99.90;;;;;;5056383;28;20032;-75
2023/05/02 10:11:45;;;;;;;8.60;5.50;;;16.10;99.90;;;;;;5056426;28;20029;-75
2023/05/02 10:14:13;;;;;;;7.95;5.43;;;16.20;99.90;;;;;;5055745;28;20040;-75
2023/05/02 10:16:53;;;;;;;10.27;6.30;;;16.10;99.90;;;;;;5056039;28;20113;-75
2023/05/02 10:19:26;;;;;;;10.48;6.05;;;16.30;99.90;;;;;;5054417;28;20025;-76
2023/05/02 10:21:53;;;;;;;9.45;6.00;;;16.20;99.90;;;;;;5056288;28;20025;-76
2023/05/02 10:24:20;;;;;;;10.70;6.00;;;16.00;99.90;;;;;;5055559;28;20501;-76
2023/05/02 10:26:47;;;;;;;10.27;6.35;;;16.20;99.90;;;;;;5055703;28;20036;-76
2023/05/02 10:29:13;;;;;;;8.32;5.95;;;16.20;99.90;;;;;;5054830;28;20049;-76
2023/05/02 10:31:41;;;;;;;10.00;6.15;;;16.30;99.90;;;;;;5055401;28;20075;-76
2023/05/02 10:34:09;;;;;;;12.82;5.93;;;16.40;99.90;;;;;;5055482;28;20041;-76
2023/05/02 10:36:35;;;;;;;8.38;6.63;;;16.40;99.90;;;;;;5055279;28;20418;-76
2023/05/02 10:39:02;;;;;;;13.43;7.28;;;16.30;99.90;;;;;;5055366;28;20071;-75
2023/05/02 10:41:32;;;;;;;8.95;6.30;;;16.40;99.90;;;;;;5054805;28;20790;-76
2023/05/02 10:43:59;;;;;;;9.43;6.45;;;16.30;99.90;;;;;;5054996;28;20029;-76
2023/05/02 10:46:33;;;;;;;16.02;6.97;;;16.10;99.90;;;;;;5054589;28;20108;-75
2023/05/02 10:49:01;;;;;;;14.95;8.00;;;15.90;99.90;;;;;;5055099;28;20021;-76
2023/05/02 10:51:28;;;;;;;8.32;6.95;;;16.10;99.90;;;;;;5056753;28;20036;-75
2023/05/02 10:54:14;;;;;;;14.13;7.22;;;16.10;99.90;;;;;;5062810;28;20045;-77
2023/05/02 10:57:06;;;;;;;14.32;8.15;;;16.30;99.90;;;;;;5066637;28;20109;-77
2023/05/02 10:59:36;;;;;;;16.30;8.77;;;16.40;99.90;;;;;;5067804;28;20044;-75
2023/05/02 11:02:03;;;;;;;15.13;7.68;;;16.30;99.90;;;;;;5070665;28;20017;-75
2023/05/02 11:04:57;;;;;;;13.32;8.15;;;16.40;99.90;;;;;;5064298;28;20028;-75
2023/05/02 11:07:23;;;;;;;11.82;8.38;;;16.40;99.90;;;;;;5068577;28;20100;-76
2023/05/02 11:09:49;;;;;;;15.77;8.55;;;15.90;99.90;;;;;;5071134;28;20032;-76
2023/05/02 11:12:45;;;;;;;13.45;8.43;;;15.90;99.90;;;;;;5069076;28;20025;-75
2023/05/02 11:15:11;;;;;;;11.52;8.60;;;15.80;99.90;;;;;;5065019;28;20044;-76
2023/05/02 11:18:02;;;;;;;11.77;8.98;;;15.80;99.90;;;;;;5058210;28;20025;-76
2023/05/02 11:20:30;;;;;;;14.75;8.65;;;15.70;99.90;;;;;;5054893;28;20082;-77
2023/05/02 11:22:58;;;;;;;13.00;8.40;;;15.70;99.90;;;;;;5054051;28;20327;-77
2023/05/02 11:25:36;;;;;;;13.82;8.77;;;15.70;99.90;;;;;;5054500;28;20017;-77
2023/05/02 11:28:05;;;;;;;27.80;10.68;;;15.80;99.90;;;;;;5054869;28;20370;-76
2023/05/02 11:30:39;;;;;;;14.27;9.75;;;15.50;99.90;;;;;;5054690;28;20491;-76
2023/05/02 11:33:05;;;;;;;12.88;9.20;;;15.30;99.90;;;;;;5042013;28;20470;-75
2023/05/02 11:35:33;;;;;;;12.75;9.00;;;15.40;99.90;;;;;;5042436;28;20043;-76
2023/05/02 11:38:03;;;;;;;13.23;10.45;;;15.50;99.90;;;;;;5059838;28;20152;-75
2023/05/02 11:40:30;;;;;;;15.02;9.60;;;15.40;99.90;;;;;;5057576;28;20025;-76
2023/05/02 11:42:58;;;;;;;15.77;10.32;;;15.40;99.90;;;;;;5058612;28;20083;-76
2023/05/02 11:45:38;;;;;;;13.48;9.30;;;15.70;99.90;;;;;;5057293;28;20425;-75
2023/05/02 11:48:05;;;;;;;15.60;10.35;;;15.90;99.90;;;;;;5057175;28;20059;-76
2023/05/02 11:50:40;;;;;;;14.73;9.50;;;16.10;99.90;;;;;;5054774;28;20043;-76
2023/05/02 11:53:12;;;;;;;13.38;9.48;;;16.20;99.90;;;;;;5054922;28;20064;-75
2023/05/02 11:55:53;;;;;;;13.23;9.27;;;16.10;99.90;;;;;;5054592;28;20462;-75
2023/05/02 11:58:21;;;;;;;15.20;9.30;;;16.10;99.90;;;;;;5053264;28;20063;-75
2023/05/02 12:00:48;;;;;;;15.18;8.63;;;16.00;99.90;;;;;;5054398;28;20443;-76
2023/05/02 12:03:28;;;;;;;13.43;9.57;;;16.00;99.90;;;;;;5054141;28;20052;-76
2023/05/02 12:05:55;;;;;;;14.48;8.93;;;16.00;99.90;;;;;;5052932;28;20061;-76
2023/05/02 12:08:27;;;;;;;17.08;8.70;;;15.90;99.90;;;;;;5053584;28;20037;-76
2023/05/02 12:10:55;;;;;;;11.98;8.05;;;16.00;99.90;;;;;;5047289;28;20037;-76
2023/05/02 12:13:25;;;;;;;11.73;7.30;;;16.10;99.90;;;;;;5040247;28;20025;-76
2023/05/02 12:15:52;;;;;;;10.75;6.82;;;16.20;99.90;;;;;;5053667;28;20033;-76
2023/05/02 12:18:22;;;;;;;11.35;6.70;;;16.40;99.90;;;;;;5034805;28;20025;-76
2023/05/02 12:20:49;;;;;;;11.50;6.80;;;16.50;99.90;;;;;;5033787;28;20320;-76
2023/05/02 12:23:16;;;;;;;11.10;6.07;;;16.60;99.90;;;;;;5032468;28;20086;-76
2023/05/02 12:25:42;;;;;;;11.20;5.28;;;16.80;99.90;;;;;;5033116;28;20067;-76
2023/05/02 12:28:09;;;;;;;11.77;5.47;;;16.50;99.90;;;;;;5033173;28;20118;-76
2023/05/02 12:30:37;;;;;;;9.13;4.90;;;16.70;99.90;;;;;;5032554;28;20218;-76
2023/05/02 12:33:03;;;;;;;9.90;4.78;;;16.90;99.90;;;;;;5033118;28;20075;-76
2023/05/02 12:35:30;;;;;;;8.73;5.10;;;17.10;99.90;;;;;;5032751;28;20022;-76
2023/05/02 12:38:17;;;;;;;7.85;4.78;;;17.30;99.90;;;;;;5033915;28;20451;-76
2023/05/02 12:40:56;;;;;;;7.00;4.30;;;17.30;99.90;;;;;;5033816;28;20021;-76
2023/05/02 12:43:22;;;;;;;9.02;4.00;;;17.50;99.90;;;;;;5015144;28;20029;-76
2023/05/02 12:45:49;;;;;;;7.07;3.90;;;17.80;99.90;;;;;;5033191;28;20080;-76
2023/05/02 12:48:18;;;;;;;3.72;2.50;;;17.80;99.90;;;;;;5032789;28;20040;-76